DUZEAR1 KSXU-KLBB
Flight info
| Callsign | DUZEAR1 |
|---|---|
| Flight time | 0h 37m |
| Altitude | 19000 |
| Route | KSXU/26 N0281F190 DCT ZATOX DCT FESOG DCT TOLDE DCT SPADE DCT KLBB/08 |
| Aircraft | PC12/L-SDE2FGIRWY/SB1 |
Departure
| Time | 2026-04-23 23:29 |
|---|---|
| Airport | Santa Rosa Route 66 Airport (KSXU) |
Arrival
| Time | 2026-04-24 00:06 |
|---|---|
| Airport | Lubbock Preston Smith International Airport (KLBB) |
| Time | Latitude | Longitude | Altitude | Speed | Heading |
|---|---|---|---|---|---|
| 2026-04-23 22:42 | 34.93348 | -104.63774 | 4799 ft | 0 kts | 20° |
| 2026-04-23 23:11 | 34.93348 | -104.63775 | 4799 ft | 0 kts | 20° |
| 2026-04-23 23:26 | 34.93361 | -104.63794 | 4798 ft | 12 kts | 304° |
| 2026-04-23 23:27 | 34.93442 | -104.63836 | 4798 ft | 16 kts | 15° |
| 2026-04-23 23:27 | 34.93600 | -104.63762 | 4798 ft | 33 kts | 21° |
| 2026-04-23 23:27 | 34.93776 | -104.63677 | 4800 ft | 22 kts | 20° |
| 2026-04-23 23:27 | 34.93841 | -104.63751 | 4797 ft | 19 kts | 291° |
| 2026-04-23 23:28 | 34.93888 | -104.63827 | 4796 ft | 6 kts | 334° |
| 2026-04-23 23:28 | 34.93940 | -104.63853 | 4796 ft | 10 kts | 284° |
| 2026-04-23 23:28 | 34.93939 | -104.64046 | 4792 ft | 48 kts | 269° |
| 2026-04-23 23:28 | 34.93916 | -104.64661 | 4864 ft | 91 kts | 259° |
| 2026-04-23 23:29 | 34.93298 | -104.65162 | 5289 ft | 137 kts | 184° |
| 2026-04-23 23:29 | 34.92303 | -104.64717 | 5760 ft | 172 kts | 161° |
| 2026-04-23 23:29 | 34.91111 | -104.63915 | 5863 ft | 212 kts | 155° |
| 2026-04-23 23:29 | 34.89857 | -104.63068 | 6654 ft | 203 kts | 159° |
| 2026-04-23 23:30 | 34.88585 | -104.62441 | 7339 ft | 191 kts | 179° |
| 2026-04-23 23:30 | 34.87279 | -104.62329 | 8022 ft | 188 kts | 185° |
| 2026-04-23 23:30 | 34.85959 | -104.62230 | 8745 ft | 192 kts | 182° |
| 2026-04-23 23:30 | 34.84692 | -104.61808 | 9763 ft | 181 kts | 164° |
| 2026-04-23 23:31 | 34.83652 | -104.61048 | 10792 ft | 176 kts | 150° |
| 2026-04-23 23:31 | 34.82785 | -104.59935 | 11558 ft | 188 kts | 131° |
| 2026-04-23 23:31 | 34.82143 | -104.58509 | 12367 ft | 193 kts | 122° |
| 2026-04-23 23:31 | 34.81525 | -104.57043 | 13178 ft | 196 kts | 123° |
| 2026-04-23 23:32 | 34.80891 | -104.55556 | 13930 ft | 199 kts | 123° |
| 2026-04-23 23:32 | 34.80258 | -104.54057 | 14592 ft | 204 kts | 123° |
| 2026-04-23 23:32 | 34.79605 | -104.52504 | 15269 ft | 208 kts | 123° |
| 2026-04-23 23:32 | 34.78942 | -104.50928 | 15944 ft | 211 kts | 123° |
| 2026-04-23 23:33 | 34.78269 | -104.49330 | 16622 ft | 214 kts | 123° |
| 2026-04-23 23:33 | 34.77584 | -104.47708 | 17288 ft | 218 kts | 123° |
| 2026-04-23 23:33 | 34.76884 | -104.46050 | 17979 ft | 222 kts | 123° |
| 2026-04-23 23:33 | 34.76170 | -104.44361 | 18538 ft | 229 kts | 123° |
| 2026-04-23 23:34 | 34.75407 | -104.42568 | 18830 ft | 251 kts | 123° |
| 2026-04-23 23:34 | 34.74560 | -104.40578 | 18868 ft | 279 kts | 122° |
| 2026-04-23 23:34 | 34.73643 | -104.38402 | 18840 ft | 298 kts | 121° |
| 2026-04-23 23:34 | 34.72688 | -104.36122 | 18744 ft | 294 kts | 121° |
| 2026-04-23 23:35 | 34.71821 | -104.34044 | 18642 ft | 272 kts | 122° |
| 2026-04-23 23:35 | 34.70902 | -104.31916 | 18637 ft | 295 kts | 122° |
| 2026-04-23 23:35 | 34.69971 | -104.29742 | 18631 ft | 307 kts | 121° |
| 2026-04-23 23:35 | 34.68987 | -104.27407 | 18636 ft | 313 kts | 121° |
| 2026-04-23 23:36 | 34.67990 | -104.25036 | 18634 ft | 316 kts | 121° |
| 2026-04-23 23:36 | 34.66977 | -104.22658 | 18629 ft | 318 kts | 122° |
| 2026-04-23 23:36 | 34.65958 | -104.20269 | 18628 ft | 319 kts | 121° |
| 2026-04-23 23:36 | 34.64940 | -104.17874 | 18627 ft | 319 kts | 121° |
| 2026-04-23 23:37 | 34.63936 | -104.15514 | 18626 ft | 319 kts | 121° |
| 2026-04-23 23:37 | 34.62914 | -104.13118 | 18624 ft | 320 kts | 121° |
| 2026-04-23 23:37 | 34.61890 | -104.10720 | 18620 ft | 319 kts | 121° |
| 2026-04-23 23:37 | 34.60869 | -104.08326 | 18624 ft | 319 kts | 121° |
| 2026-04-23 23:38 | 34.59850 | -104.05936 | 18622 ft | 319 kts | 121° |
| 2026-04-23 23:38 | 34.58828 | -104.03544 | 18623 ft | 320 kts | 121° |
| 2026-04-23 23:38 | 34.57803 | -104.01150 | 18620 ft | 319 kts | 122° |
| 2026-04-23 23:38 | 34.56780 | -103.98761 | 18623 ft | 319 kts | 121° |
| 2026-04-23 23:39 | 34.55756 | -103.96369 | 18623 ft | 319 kts | 121° |
| 2026-04-23 23:39 | 34.54734 | -103.93981 | 18624 ft | 319 kts | 121° |
| 2026-04-23 23:39 | 34.53709 | -103.91593 | 18625 ft | 318 kts | 122° |
| 2026-04-23 23:39 | 34.52685 | -103.89210 | 18623 ft | 319 kts | 122° |
| 2026-04-23 23:40 | 34.51663 | -103.86825 | 18622 ft | 319 kts | 122° |
| 2026-04-23 23:40 | 34.50638 | -103.84438 | 18626 ft | 319 kts | 122° |
| 2026-04-23 23:40 | 34.49611 | -103.82053 | 18627 ft | 319 kts | 122° |
| 2026-04-23 23:40 | 34.48584 | -103.79664 | 18632 ft | 319 kts | 121° |
| 2026-04-23 23:41 | 34.47559 | -103.77280 | 18627 ft | 319 kts | 122° |
| 2026-04-23 23:41 | 34.46530 | -103.74897 | 18627 ft | 319 kts | 122° |
| 2026-04-23 23:41 | 34.45501 | -103.72518 | 18639 ft | 319 kts | 122° |
| 2026-04-23 23:41 | 34.44475 | -103.70138 | 18658 ft | 319 kts | 122° |
| 2026-04-23 23:42 | 34.43449 | -103.67758 | 18673 ft | 319 kts | 122° |
| 2026-04-23 23:42 | 34.42421 | -103.65381 | 18690 ft | 318 kts | 122° |
| 2026-04-23 23:42 | 34.41393 | -103.63006 | 18700 ft | 318 kts | 122° |
| 2026-04-23 23:42 | 34.40370 | -103.60639 | 18717 ft | 317 kts | 122° |
| 2026-04-23 23:43 | 34.39345 | -103.58271 | 18728 ft | 317 kts | 122° |
| 2026-04-23 23:43 | 34.38320 | -103.55905 | 18741 ft | 317 kts | 122° |
| 2026-04-23 23:43 | 34.37293 | -103.53539 | 18752 ft | 317 kts | 122° |
| 2026-04-23 23:43 | 34.36267 | -103.51178 | 18770 ft | 317 kts | 122° |
| 2026-04-23 23:44 | 34.35243 | -103.48821 | 18778 ft | 316 kts | 122° |
| 2026-04-23 23:44 | 34.34218 | -103.46460 | 18788 ft | 317 kts | 122° |
| 2026-04-23 23:44 | 34.33193 | -103.44100 | 18795 ft | 317 kts | 122° |
| 2026-04-23 23:44 | 34.32185 | -103.41777 | 18805 ft | 316 kts | 122° |
| 2026-04-23 23:45 | 34.31163 | -103.39387 | 18806 ft | 316 kts | 121° |
| 2026-04-23 23:45 | 34.30169 | -103.37016 | 18806 ft | 316 kts | 121° |
| 2026-04-23 23:45 | 34.29185 | -103.34680 | 18804 ft | 316 kts | 121° |
| 2026-04-23 23:45 | 34.28181 | -103.32320 | 18799 ft | 315 kts | 122° |
| 2026-04-23 23:46 | 34.27179 | -103.29965 | 18791 ft | 315 kts | 121° |
| 2026-04-23 23:46 | 34.26180 | -103.27609 | 18783 ft | 315 kts | 121° |
| 2026-04-23 23:46 | 34.25183 | -103.25259 | 18773 ft | 314 kts | 122° |
| 2026-04-23 23:46 | 34.24184 | -103.22910 | 18760 ft | 314 kts | 122° |
| 2026-04-23 23:47 | 34.23182 | -103.20562 | 18751 ft | 314 kts | 122° |
| 2026-04-23 23:47 | 34.22188 | -103.18217 | 18739 ft | 314 kts | 121° |
| 2026-04-23 23:47 | 34.21414 | -103.15825 | 18721 ft | 316 kts | 113° |
| 2026-04-23 23:47 | 34.20686 | -103.13316 | 18724 ft | 316 kts | 113° |
| 2026-04-23 23:48 | 34.19941 | -103.10818 | 18723 ft | 316 kts | 114° |
| 2026-04-23 23:48 | 34.19194 | -103.08323 | 18723 ft | 316 kts | 114° |
| 2026-04-23 23:48 | 34.18450 | -103.05822 | 18714 ft | 316 kts | 113° |
| 2026-04-23 23:48 | 34.17708 | -103.03321 | 18709 ft | 316 kts | 114° |
| 2026-04-23 23:49 | 34.16217 | -102.98321 | 18696 ft | 317 kts | 114° |
| 2026-04-23 23:49 | 34.15469 | -102.95818 | 18687 ft | 317 kts | 114° |
| 2026-04-23 23:49 | 34.14721 | -102.93310 | 18675 ft | 318 kts | 114° |
| 2026-04-23 23:50 | 34.13972 | -102.90802 | 18665 ft | 318 kts | 114° |
| 2026-04-23 23:50 | 34.13223 | -102.88295 | 18656 ft | 317 kts | 114° |
| 2026-04-23 23:50 | 34.12473 | -102.85790 | 18639 ft | 317 kts | 114° |
| 2026-04-23 23:50 | 34.11721 | -102.83286 | 18631 ft | 317 kts | 114° |
| 2026-04-23 23:51 | 34.10970 | -102.80782 | 18628 ft | 318 kts | 114° |
| 2026-04-23 23:51 | 34.10218 | -102.78272 | 18635 ft | 318 kts | 114° |
| 2026-04-23 23:51 | 34.09462 | -102.75759 | 18637 ft | 319 kts | 114° |
| 2026-04-23 23:51 | 34.08706 | -102.73245 | 18640 ft | 319 kts | 114° |
| 2026-04-23 23:52 | 34.07950 | -102.70731 | 18640 ft | 319 kts | 114° |
| 2026-04-23 23:52 | 34.07192 | -102.68214 | 18641 ft | 319 kts | 114° |
| 2026-04-23 23:52 | 34.06946 | -102.67397 | 18640 ft | 319 kts | 114° |
| 2026-04-23 23:52 | 34.06436 | -102.65705 | 18641 ft | 319 kts | 114° |
| 2026-04-23 23:53 | 34.05678 | -102.63196 | 18638 ft | 319 kts | 114° |
| 2026-04-23 23:53 | 34.04916 | -102.60671 | 18613 ft | 320 kts | 114° |
| 2026-04-23 23:53 | 34.04154 | -102.58156 | 18298 ft | 327 kts | 114° |
| 2026-04-23 23:53 | 34.03378 | -102.55588 | 17871 ft | 328 kts | 114° |
| 2026-04-23 23:54 | 34.02592 | -102.52991 | 17396 ft | 329 kts | 114° |
| 2026-04-23 23:54 | 34.01824 | -102.50447 | 16976 ft | 319 kts | 114° |
| 2026-04-23 23:54 | 34.01064 | -102.47942 | 16773 ft | 318 kts | 114° |
| 2026-04-23 23:54 | 34.00297 | -102.45429 | 16396 ft | 321 kts | 113° |
| 2026-04-23 23:55 | 33.99541 | -102.42942 | 16267 ft | 323 kts | 115° |
| 2026-04-23 23:55 | 33.98766 | -102.40390 | 15703 ft | 324 kts | 114° |
| 2026-04-23 23:55 | 33.98002 | -102.37867 | 15260 ft | 317 kts | 114° |
| 2026-04-23 23:55 | 33.97248 | -102.35390 | 14846 ft | 314 kts | 114° |
| 2026-04-23 23:56 | 33.96752 | -102.33766 | 14582 ft | 313 kts | 114° |
| 2026-04-23 23:56 | 33.96009 | -102.31329 | 14164 ft | 303 kts | 114° |
| 2026-04-23 23:56 | 33.95283 | -102.28946 | 13774 ft | 303 kts | 114° |
| 2026-04-23 23:56 | 33.94555 | -102.26571 | 13377 ft | 301 kts | 114° |
| 2026-04-23 23:57 | 33.93834 | -102.24221 | 12985 ft | 299 kts | 114° |
| 2026-04-23 23:57 | 33.93119 | -102.21875 | 12594 ft | 298 kts | 114° |
| 2026-04-23 23:57 | 33.92410 | -102.19560 | 12206 ft | 294 kts | 114° |
| 2026-04-23 23:57 | 33.91542 | -102.17442 | 11825 ft | 289 kts | 127° |
| 2026-04-23 23:58 | 33.90262 | -102.15624 | 11438 ft | 282 kts | 141° |
| 2026-04-23 23:58 | 33.88712 | -102.14260 | 11069 ft | 272 kts | 155° |
| 2026-04-23 23:58 | 33.87000 | -102.13348 | 10714 ft | 268 kts | 163° |
| 2026-04-23 23:58 | 33.85263 | -102.12538 | 10361 ft | 268 kts | 163° |
| 2026-04-23 23:59 | 33.83540 | -102.11717 | 10006 ft | 266 kts | 163° |
| 2026-04-23 23:59 | 33.81818 | -102.10897 | 9648 ft | 265 kts | 163° |
| 2026-04-23 23:59 | 33.80109 | -102.10090 | 9304 ft | 263 kts | 163° |
| 2026-04-23 23:59 | 33.78458 | -102.09314 | 8968 ft | 262 kts | 163° |
| 2026-04-24 00:00 | 33.76786 | -102.08523 | 8629 ft | 253 kts | 163° |
| 2026-04-24 00:00 | 33.75197 | -102.07764 | 8307 ft | 228 kts | 163° |
| 2026-04-24 00:00 | 33.73796 | -102.07097 | 8048 ft | 216 kts | 163° |
| 2026-04-24 00:00 | 33.72440 | -102.06466 | 7781 ft | 207 kts | 164° |
| 2026-04-24 00:01 | 33.71093 | -102.05837 | 7512 ft | 208 kts | 164° |
| 2026-04-24 00:01 | 33.69751 | -102.05203 | 7251 ft | 207 kts | 163° |
| 2026-04-24 00:01 | 33.68445 | -102.04513 | 6977 ft | 206 kts | 155° |
| 2026-04-24 00:01 | 33.67330 | -102.03405 | 6711 ft | 211 kts | 137° |
| 2026-04-24 00:02 | 33.66590 | -102.02049 | 6436 ft | 180 kts | 121° |
| 2026-04-24 00:02 | 33.66208 | -102.00637 | 6212 ft | 182 kts | 105° |
| 2026-04-24 00:02 | 33.66128 | -101.99087 | 5978 ft | 189 kts | 92° |
| 2026-04-24 00:02 | 33.66144 | -101.97516 | 5727 ft | 187 kts | 92° |
| 2026-04-24 00:03 | 33.66150 | -101.96012 | 5485 ft | 165 kts | 91° |
| 2026-04-24 00:03 | 33.66160 | -101.94736 | 5268 ft | 144 kts | 91° |
| 2026-04-24 00:03 | 33.66162 | -101.93594 | 5111 ft | 133 kts | 91° |
| 2026-04-24 00:03 | 33.66167 | -101.92451 | 4948 ft | 139 kts | 90° |
| 2026-04-24 00:04 | 33.66174 | -101.91310 | 4760 ft | 133 kts | 90° |
| 2026-04-24 00:04 | 33.66180 | -101.90220 | 4580 ft | 124 kts | 89° |
| 2026-04-24 00:04 | 33.66186 | -101.89273 | 4403 ft | 105 kts | 89° |
| 2026-04-24 00:04 | 33.66191 | -101.88392 | 4291 ft | 115 kts | 89° |
| 2026-04-24 00:05 | 33.66197 | -101.87402 | 4155 ft | 124 kts | 89° |
| 2026-04-24 00:05 | 33.66202 | -101.86407 | 3987 ft | 116 kts | 89° |
| 2026-04-24 00:05 | 33.66209 | -101.85448 | 3835 ft | 113 kts | 89° |
| 2026-04-24 00:05 | 33.66217 | -101.84526 | 3714 ft | 111 kts | 88° |
| 2026-04-24 00:06 | 33.66222 | -101.83605 | 3558 ft | 111 kts | 90° |
| 2026-04-24 00:06 | 33.66222 | -101.82702 | 3410 ft | 106 kts | 89° |
| 2026-04-24 00:06 | 33.66224 | -101.81846 | 3296 ft | 96 kts | 90° |
| 2026-04-24 00:06 | 33.66228 | -101.81255 | 3288 ft | 45 kts | 90° |
| 2026-04-24 00:07 | 33.66229 | -101.80903 | 3288 ft | 22 kts | 89° |
| 2026-04-24 00:07 | 33.66168 | -101.80793 | 3288 ft | 22 kts | 178° |
| 2026-04-24 00:07 | 33.66050 | -101.80944 | 3289 ft | 33 kts | 252° |
| 2026-04-24 00:07 | 33.66037 | -101.81255 | 3289 ft | 29 kts | 270° |
| 2026-04-24 00:08 | 33.66037 | -101.81463 | 3289 ft | 34 kts | 270° |
| 2026-04-24 00:08 | 33.66034 | -101.81753 | 3290 ft | 31 kts | 269° |
| 2026-04-24 00:08 | 33.66032 | -101.82073 | 3290 ft | 45 kts | 270° |
| 2026-04-24 00:08 | 33.66030 | -101.82374 | 3289 ft | 31 kts | 269° |
| 2026-04-24 00:09 | 33.66028 | -101.82644 | 3289 ft | 36 kts | 270° |
| 2026-04-24 00:09 | 33.66027 | -101.82912 | 3287 ft | 32 kts | 271° |
| 2026-04-24 00:09 | 33.66026 | -101.83069 | 3289 ft | 15 kts | 269° |
| 2026-04-24 00:09 | 33.65993 | -101.83130 | 3289 ft | 10 kts | 274° |
| 2026-04-24 00:10 | 33.65988 | -101.83194 | 3289 ft | 10 kts | 210° |
| 2026-04-24 00:10 | 33.65889 | -101.83199 | 3289 ft | 16 kts | 188° |
| 2026-04-24 00:10 | 33.65890 | -101.83259 | 3289 ft | 9 kts | 359° |
| 2026-04-24 00:10 | 33.65897 | -101.83259 | 3289 ft | 0 kts | 359° |
| 2026-04-24 00:48 | 33.65896 | -101.83259 | 3289 ft | 0 kts | 359° |